Time;durP1;ratioP1;P1;durP2;ratioP2;P2;SDS_P1;SDS_P2;PMS_P1;PMS_P2;Temp;Humidity;BMP_temperature;BMP_pressure;BME280_temperature;BME280_humidity;BME280_pressure;Samples;Min_cycle;Max_cycle;Signal;HPM_P1;HPM_P2
2023/06/17 00:03:20;;;;;;;23.20;21.10;;;;;;;16.98;74.53;100144.48;221863;1231;74744;-74
2023/06/17 00:08:12;;;;;;;22.60;20.60;;;;;;;16.92;74.65;100143.01;221862;1235;61271;-74
2023/06/17 00:13:07;;;;;;;22.50;20.60;;;;;;;16.81;74.60;100135.83;221874;1232;61315;-74
2023/06/17 00:18:00;;;;;;;22.50;20.40;;;;;;;16.68;74.76;100130.80;221825;1231;73506;-74
2023/06/17 00:22:52;;;;;;;21.10;19.20;;;;;;;16.63;74.82;100128.25;221794;1231;61334;-74
2023/06/17 00:27:44;;;;;;;22.10;20.00;;;;;;;16.56;74.89;100117.88;221892;1235;61313;-74
2023/06/17 00:32:37;;;;;;;20.60;18.80;;;;;;;16.51;75.01;100118.32;221962;1231;61233;-73
2023/06/17 00:37:28;;;;;;;19.00;17.20;;;;;;;16.46;75.15;100112.45;221966;1231;65569;-73
2023/06/17 00:42:20;;;;;;;19.10;17.30;;;;;;;16.40;74.95;100110.11;221939;1235;61978;-74
2023/06/17 00:47:12;;;;;;;18.00;16.60;;;;;;;16.35;75.12;100104.23;221968;1231;61306;-73
2023/06/17 00:52:07;;;;;;;17.90;16.20;;;;;;;16.29;75.07;100096.83;221886;1231;61280;-74
2023/06/17 00:57:19;;;;;;;16.90;15.40;;;;;;;16.20;75.37;100098.19;221821;1235;75165;-73
2023/06/17 01:02:13;;;;;;;16.00;14.50;;;;;;;16.15;75.41;100098.09;221916;1231;61338;-74
2023/06/17 01:07:09;;;;;;;15.70;14.30;;;;;;;16.14;75.43;100099.33;221924;1231;61348;-74
2023/06/17 01:12:03;;;;;;;14.70;13.30;;;;;;;16.10;75.33;100099.23;221880;1231;66931;-74
2023/06/17 01:16:54;;;;;;;13.80;12.50;;;;;;;16.05;75.39;100096.68;221780;1231;61896;-73
2023/06/17 01:21:48;;;;;;;13.50;12.30;;;;;;;15.99;75.35;100098.16;221881;1231;61299;-73
2023/06/17 01:26:40;;;;;;;14.40;13.10;;;;;;;15.94;75.51;100098.23;221773;1231;61282;-74
2023/06/17 01:31:32;;;;;;;14.90;13.50;;;;;;;15.90;75.55;100102.31;221630;1231;61264;-74
2023/06/17 01:36:29;;;;;;;14.90;13.70;;;;;;;15.88;75.69;100102.00;221850;1235;61291;-73
2023/06/17 01:41:29;;;;;;;16.00;14.30;;;;;;;15.85;75.58;100095.92;221747;1231;61158;-74
2023/06/17 01:46:24;;;;;;;15.00;13.70;;;;;;;15.81;75.79;100092.48;221903;1231;65490;-73
2023/06/17 01:51:15;;;;;;;13.90;12.60;;;;;;;15.79;75.71;100087.45;221900;1231;61085;-74
2023/06/17 01:56:07;;;;;;;14.90;13.60;;;;;;;15.76;75.86;100077.89;221772;1231;61220;-74
2023/06/17 02:00:58;;;;;;;15.40;14.10;;;;;;;15.74;75.89;100073.01;221952;1231;61246;-74
2023/06/17 02:05:50;;;;;;;15.50;14.20;;;;;;;15.68;75.72;100069.92;221733;1235;73896;-74
2023/06/17 02:10:42;;;;;;;15.00;13.70;;;;;;;15.62;75.78;100065.81;221836;1231;61316;-74
2023/06/17 02:15:33;;;;;;;12.60;11.40;;;;;;;15.57;75.95;100061.00;221922;1231;61671;-74
2023/06/17 02:20:26;;;;;;;12.80;11.70;;;;;;;15.53;75.97;100052.84;221905;1235;72589;-73
2023/06/17 02:25:17;;;;;;;11.80;10.80;;;;;;;15.51;76.03;100051.48;221922;1231;61252;-74
2023/06/17 02:30:12;;;;;;;12.90;11.80;;;;;;;15.48;76.11;100050.11;221747;1231;61992;-74
2023/06/17 02:35:05;;;;;;;12.70;11.70;;;;;;;15.46;76.26;100050.85;221859;1235;61245;-74
2023/06/17 02:39:56;;;;;;;12.80;11.60;;;;;;;15.42;76.42;100049.85;221962;1232;61242;-74
2023/06/17 02:44:48;;;;;;;11.50;10.50;;;;;;;15.42;76.55;100050.55;221802;1231;61354;-74
2023/06/17 02:49:40;;;;;;;12.30;11.30;;;;;;;15.37;76.60;100054.45;221875;1232;61292;-74
2023/06/17 02:54:31;;;;;;;12.50;11.40;;;;;;;15.33;76.66;100052.95;221655;1231;193975;-73
2023/06/17 02:59:24;;;;;;;13.30;12.00;;;;;;;15.27;76.66;100050.75;221765;1231;61305;-74
2023/06/17 03:04:20;;;;;;;13.10;12.00;;;;;;;15.23;76.81;100050.96;221682;1231;61315;-74
2023/06/17 03:09:11;;;;;;;12.60;11.60;;;;;;;15.23;77.03;100050.62;221924;1232;61335;-73
2023/06/17 03:14:04;;;;;;;12.40;11.30;;;;;;;15.25;77.15;100043.08;221913;1231;61418;-74
2023/06/17 03:18:58;;;;;;;11.60;10.60;;;;;;;15.28;77.26;100044.11;221932;1231;61274;-74
2023/06/17 03:23:50;;;;;;;11.80;10.70;;;;;;;15.31;77.23;100044.42;221725;1231;61245;-74
2023/06/17 03:28:42;;;;;;;12.00;11.00;;;;;;;15.31;77.25;100046.34;221899;1231;61255;-73
2023/06/17 03:33:34;;;;;;;11.10;10.20;;;;;;;15.32;77.59;100045.98;221879;1231;61298;-74
2023/06/17 03:38:26;;;;;;;11.40;10.30;;;;;;;15.35;77.52;100048.91;221755;1231;67119;-73
2023/06/17 03:43:17;;;;;;;10.90;9.90;;;;;;;15.35;77.63;100049.26;221782;1231;61738;-74
2023/06/17 03:48:10;;;;;;;11.20;10.20;;;;;;;15.44;77.75;100049.48;221761;1231;61244;-74
2023/06/17 03:53:02;;;;;;;11.60;10.50;;;;;;;15.55;77.67;100049.84;221924;1232;61294;-74
2023/06/17 03:57:53;;;;;;;9.70;8.80;;;;;;;15.66;77.39;100043.92;221926;1231;74182;-74
2023/06/17 04:02:47;;;;;;;10.70;9.70;;;;;;;15.77;77.31;100039.75;221762;1231;61255;-74
2023/06/17 04:07:48;;;;;;;11.30;10.10;;;;;;;15.86;77.31;100042.44;221930;1231;61161;-74
2023/06/17 04:12:42;;;;;;;10.40;9.40;;;;;;;15.88;77.22;100045.04;221916;1231;66238;-74
2023/06/17 04:17:36;;;;;;;9.50;8.70;;;;;;;15.87;77.25;100044.17;221881;1231;61228;-74
2023/06/17 04:22:28;;;;;;;9.20;8.40;;;;;;;15.92;77.38;100049.33;221784;1231;72943;-74
2023/06/17 04:27:19;;;;;;;10.90;9.90;;;;;;;16.01;77.62;100048.50;221910;1235;61377;-74
2023/06/17 04:32:15;;;;;;;10.50;9.50;;;;;;;16.12;77.64;100045.16;221947;1235;61258;-74
2023/06/17 04:37:08;;;;;;;9.40;8.60;;;;;;;16.13;77.29;100048.31;221742;1231;71104;-74
2023/06/17 04:42:00;;;;;;;9.60;8.70;;;;;;;16.09;77.39;100042.25;221874;1231;61229;-74
2023/06/17 04:46:53;;;;;;;9.70;8.90;;;;;;;16.16;77.61;100046.33;221790;1231;61218;-74
2023/06/17 04:51:48;;;;;;;8.40;7.60;;;;;;;16.18;77.33;100046.10;221700;1231;61326;-74
2023/06/17 04:56:40;;;;;;;10.10;9.20;;;;;;;16.23;77.46;100049.89;221853;1231;74836;-75
2023/06/17 05:01:32;;;;;;;8.40;7.60;;;;;;;16.31;77.45;100048.88;221718;1231;61327;-74
2023/06/17 05:06:24;;;;;;;9.80;8.90;;;;;;;16.41;77.28;100050.80;221863;1231;61355;-74
2023/06/17 05:11:16;;;;;;;9.90;8.40;;;;;;;16.54;76.92;100049.00;221892;1231;61290;-74
2023/06/17 05:16:09;;;;;;;7.70;7.00;;;;;;;16.67;76.60;100051.89;221861;1232;61284;-74
2023/06/17 05:21:04;;;;;;;7.80;7.10;;;;;;;16.80;76.29;100052.19;221716;1235;66701;-74
2023/06/17 05:25:55;;;;;;;9.10;8.30;;;;;;;16.90;76.43;100054.81;221760;1231;61344;-75
2023/06/17 05:30:47;;;;;;;10.10;9.10;;;;;;;16.97;76.45;100059.59;221854;1235;61245;-74
2023/06/17 05:35:41;;;;;;;10.10;9.10;;;;;;;17.04;76.30;100060.85;221746;1235;61357;-75
2023/06/17 05:40:32;;;;;;;9.30;8.50;;;;;;;17.07;76.12;100061.30;221755;1232;61542;-74
2023/06/17 05:45:24;;;;;;;10.50;9.70;;;;;;;17.15;76.11;100056.60;221547;1231;73000;-74
2023/06/17 05:50:16;;;;;;;10.60;9.50;;;;;;;17.25;75.98;100061.81;221893;1231;61239;-74
2023/06/17 05:55:10;;;;;;;10.50;9.60;;;;;;;17.38;75.90;100059.63;221863;1235;61280;-74
2023/06/17 06:00:03;;;;;;;10.00;9.10;;;;;;;17.52;75.68;100060.37;221759;1231;61306;-74
2023/06/17 06:05:04;;;;;;;10.80;9.70;;;;;;;17.70;75.34;100057.69;221829;1231;73083;-74
2023/06/17 06:09:56;;;;;;;10.10;9.20;;;;;;;17.83;75.27;100066.34;221733;1231;61255;-74
2023/06/17 06:14:47;;;;;;;11.30;10.10;;;;;;;17.80;75.42;100069.54;221802;1231;61113;-74
2023/06/17 06:19:39;;;;;;;11.30;10.20;;;;;;;17.87;75.66;100071.86;221807;1231;61336;-74
2023/06/17 06:24:31;;;;;;;10.00;9.20;;;;;;;18.09;75.31;100081.34;221822;1231;61183;-75
2023/06/17 06:29:22;;;;;;;9.90;8.90;;;;;;;18.25;74.62;100085.33;221744;1235;61406;-74
2023/06/17 06:34:14;;;;;;;10.40;9.60;;;;;;;18.31;74.69;100084.50;221894;1231;61235;-74
2023/06/17 06:39:06;;;;;;;10.50;9.60;;;;;;;18.38;74.42;100084.16;221668;1235;67847;-74
2023/06/17 06:43:59;;;;;;;10.10;9.30;;;;;;;18.45;74.28;100087.13;221713;1231;61201;-74
2023/06/17 06:48:50;;;;;;;10.10;9.10;;;;;;;18.63;73.79;100086.67;221859;1235;61289;-74
2023/06/17 06:53:42;;;;;;;18.50;9.40;;;;;;;18.79;73.23;100088.52;221898;1231;61368;-74
2023/06/17 06:58:34;;;;;;;11.00;10.00;;;;;;;18.92;72.96;100082.41;221799;1235;74481;-74
2023/06/17 07:03:26;;;;;;;10.50;9.60;;;;;;;19.16;72.59;100080.52;221822;1231;61364;-74
2023/06/17 07:08:18;;;;;;;8.60;8.00;;;;;;;19.53;72.38;100081.02;221742;1235;61325;-74
2023/06/17 07:13:12;;;;;;;8.60;7.90;;;;;;;19.94;71.08;100081.17;221610;1231;61456;-74
2023/06/17 07:18:05;;;;;;;9.40;8.60;;;;;;;20.20;70.24;100078.96;221817;1231;61108;-74
2023/06/17 07:22:57;;;;;;;9.40;8.60;;;;;;;20.14;69.97;100078.09;221931;1235;61303;-74
2023/06/17 07:27:48;;;;;;;8.90;8.30;;;;;;;20.30;69.89;100080.03;221836;1231;61366;-74
2023/06/17 07:32:40;;;;;;;9.70;8.90;;;;;;;20.48;69.76;100082.77;221819;1231;61725;-74
2023/06/17 07:37:32;;;;;;;9.00;8.10;;;;;;;20.71;68.81;100082.88;221773;1231;61233;-75
2023/06/17 07:42:24;;;;;;;9.50;8.70;;;;;;;21.22;67.84;100075.60;221729;1231;73507;-74
2023/06/17 07:47:16;;;;;;;9.10;8.40;;;;;;;21.61;66.75;100076.41;221825;1231;61353;-74
2023/06/17 07:52:08;;;;;;;8.40;7.80;;;;;;;23.11;64.29;100070.86;221836;1231;61422;-75
2023/06/17 07:56:59;;;;;;;8.30;7.70;;;;;;;23.49;63.37;100066.72;221699;1231;73089;-75
2023/06/17 08:01:51;;;;;;;8.30;7.50;;;;;;;23.46;63.01;100068.23;221780;1231;61254;-75
2023/06/17 08:06:44;;;;;;;8.00;7.40;;;;;;;24.15;62.20;100063.02;221834;1231;61228;-74
2023/06/17 08:11:35;;;;;;;8.40;7.70;;;;;;;24.17;60.91;100057.59;221918;1235;61262;-75
2023/06/17 08:16:27;;;;;;;8.00;7.40;;;;;;;24.15;60.71;100053.65;221895;1231;66702;-74
2023/06/17 08:21:19;;;;;;;7.90;7.30;;;;;;;24.56;59.65;100050.17;221808;1235;61315;-74
2023/06/17 08:26:11;;;;;;;7.50;7.00;;;;;;;24.22;59.30;100049.21;221921;1231;61262;-74
2023/06/17 08:31:03;;;;;;;7.40;6.80;;;;;;;24.32;58.91;100045.53;221816;1231;61242;-75
2023/06/17 08:35:54;;;;;;;7.20;6.40;;;;;;;24.36;58.90;100045.48;221849;1231;61239;-74
2023/06/17 08:40:46;;;;;;;7.20;6.60;;;;;;;24.51;57.86;100045.10;221732;1231;61235;-75
2023/06/17 08:45:39;;;;;;;7.70;7.00;;;;;;;24.54;57.68;100041.05;221823;1231;75206;-74
2023/06/17 08:50:33;;;;;;;7.00;6.60;;;;;;;25.18;56.51;100041.40;221835;1231;72022;-75
2023/06/17 08:55:25;;;;;;;6.70;6.20;;;;;;;25.16;56.73;100037.41;221808;1231;61243;-75
2023/06/17 09:00:17;;;;;;;7.10;6.50;;;;;;;25.13;56.70;100042.70;221680;1237;61966;-75
2023/06/17 09:05:09;;;;;;;7.00;6.40;;;;;;;24.88;56.68;100042.65;221844;1231;61354;-75
2023/06/17 09:10:08;;;;;;;7.00;6.40;;;;;;;24.94;55.58;100043.80;221903;1235;61313;-75
2023/06/17 09:15:00;;;;;;;6.30;5.70;;;;;;;24.99;55.06;100041.55;221872;1231;61334;-75
2023/06/17 09:19:54;;;;;;;6.40;5.80;;;;;;;25.02;54.64;100038.20;221849;1231;61351;-75
2023/06/17 09:24:46;;;;;;;8.90;6.20;;;;;;;25.30;54.00;100038.30;221845;1231;61310;-75
2023/06/17 09:29:38;;;;;;;5.40;5.00;;;;;;;26.81;51.30;100038.17;221813;1231;61261;-74
2023/06/17 09:34:30;;;;;;;6.00;5.50;;;;;;;29.16;47.77;100030.77;221833;1231;61324;-75
2023/06/17 09:39:29;;;;;;;5.60;5.20;;;;;;;30.06;46.71;100033.74;221874;1235;61517;-75
2023/06/17 09:44:22;;;;;;;5.80;5.30;;;;;;;31.16;44.87;100029.25;221892;1231;66957;-75
2023/06/17 09:49:16;;;;;;;5.50;5.00;;;;;;;30.30;45.59;100032.80;221856;1231;61253;-75
2023/06/17 09:54:09;;;;;;;7.80;5.10;;;;;;;30.68;44.13;100031.35;221683;1231;74317;-75
2023/06/17 09:59:03;;;;;;;6.00;5.60;;;;;;;29.04;45.54;100033.09;221763;1231;73539;-75
2023/06/17 10:03:55;;;;;;;5.80;5.30;;;;;;;27.80;46.81;100036.02;221898;1231;61235;-75
2023/06/17 10:08:50;;;;;;;5.50;5.10;;;;;;;27.34;46.79;100034.26;221972;1231;61239;-75
2023/06/17 10:13:42;;;;;;;5.40;5.00;;;;;;;28.26;45.48;100021.14;221914;1231;61380;-74
2023/06/17 10:18:37;;;;;;;5.70;5.30;;;;;;;28.25;45.04;100026.39;221779;1231;61254;-75
2023/06/17 10:23:30;;;;;;;6.00;5.30;;;;;;;27.44;46.51;100020.86;221819;1231;72911;-74
2023/06/17 10:28:22;;;;;;;5.20;4.90;;;;;;;27.17;46.88;100020.05;221789;1236;61656;-74
2023/06/17 10:33:13;;;;;;;5.90;5.30;;;;;;;27.32;45.58;100014.50;221806;1231;61312;-74
2023/06/17 10:38:07;;;;;;;5.90;5.50;;;;;;;27.33;45.96;100021.55;221827;1231;61255;-75
2023/06/17 10:43:02;;;;;;;5.50;5.10;;;;;;;27.82;45.47;100018.93;221778;1231;67811;-74
2023/06/17 10:48:14;;;;;;;5.90;5.20;;;;;;;27.79;45.19;100020.00;221777;1231;61572;-74
2023/06/17 10:53:06;;;;;;;6.10;5.60;;;;;;;27.01;45.59;100022.30;221800;1231;75242;-75
2023/06/17 10:57:58;;;;;;;7.10;6.40;;;;;;;26.00;46.40;100026.91;221811;1231;61286;-74
2023/06/17 11:02:49;;;;;;;6.00;5.60;;;;;;;24.92;47.73;100030.77;221881;1232;61254;-74
2023/06/17 11:07:41;;;;;;;6.90;6.40;;;;;;;24.11;48.80;100034.34;221799;1235;72127;-74
2023/06/17 11:12:34;;;;;;;6.70;5.90;;;;;;;23.65;50.20;100035.54;221735;1235;61292;-74
2023/06/17 11:17:25;;;;;;;6.80;6.10;;;;;;;23.47;50.78;100035.52;221809;1231;61257;-74
2023/06/17 11:22:17;;;;;;;6.20;5.80;;;;;;;23.49;50.83;100036.80;221847;1235;61329;-74
2023/06/17 11:27:12;;;;;;;7.20;6.60;;;;;;;23.59;50.64;100035.08;221792;1231;68051;-74
2023/06/17 11:32:04;;;;;;;6.40;5.90;;;;;;;23.71;50.74;100031.34;221825;1235;61246;-74
2023/06/17 11:36:55;;;;;;;6.40;5.90;;;;;;;23.65;50.98;100032.70;221877;1235;61242;-74
2023/06/17 11:41:47;;;;;;;7.40;6.70;;;;;;;23.31;51.65;100031.80;221737;1235;61312;-74
2023/06/17 11:46:38;;;;;;;8.50;7.70;;;;;;;22.92;51.91;100040.98;221680;1231;74455;-74
2023/06/17 11:51:30;;;;;;;9.10;8.10;;;;;;;22.44;52.36;100046.09;221756;1235;61327;-74
2023/06/17 11:56:25;;;;;;;8.70;8.00;;;;;;;22.11;53.21;100045.67;221850;1231;61193;-74
2023/06/17 12:01:17;;;;;;;9.10;8.40;;;;;;;21.97;53.79;100043.23;221803;1231;61339;-74
2023/06/17 12:06:08;;;;;;;9.60;8.80;;;;;;;21.97;54.59;100044.29;221749;1235;61338;-74
2023/06/17 12:11:08;;;;;;;9.70;9.00;;;;;;;22.07;54.91;100045.66;221909;1237;61283;-74
2023/06/17 12:16:00;;;;;;;9.70;8.80;;;;;;;22.27;54.69;100037.80;221834;1236;61236;-74
2023/06/17 12:20:52;;;;;;;9.70;8.80;;;;;;;22.56;55.00;100032.89;221863;1231;61338;-74
2023/06/17 12:25:46;;;;;;;9.80;8.90;;;;;;;22.81;54.31;100034.08;221775;1236;61334;-74
2023/06/17 12:30:39;;;;;;;9.10;8.40;;;;;;;23.12;54.26;100028.27;221787;1236;61706;-74
2023/06/17 12:35:30;;;;;;;8.80;8.10;;;;;;;23.44;53.39;100024.12;221814;1231;61767;-74
2023/06/17 12:40:22;;;;;;;9.80;9.10;;;;;;;23.56;53.18;100023.36;221841;1231;61241;-74
2023/06/17 12:45:14;;;;;;;9.70;8.80;;;;;;;23.66;53.44;100022.01;221809;1231;66785;-74
2023/06/17 12:50:06;;;;;;;9.40;8.70;;;;;;;23.94;52.47;100013.08;221867;1235;61248;-74
2023/06/17 12:54:59;;;;;;;9.70;8.80;;;;;;;24.00;52.31;100015.09;221750;1231;61241;-74
2023/06/17 12:59:51;;;;;;;9.00;8.20;;;;;;;24.00;51.73;100008.72;221936;1231;61312;-74
2023/06/17 13:04:42;;;;;;;9.00;8.30;;;;;;;23.94;51.95;100004.91;221804;1231;61399;-74
2023/06/17 13:09:35;;;;;;;9.80;8.90;;;;;;;24.11;51.59;99998.22;221890;1231;61357;-74
2023/06/17 13:14:27;;;;;;;8.70;8.10;;;;;;;24.74;50.74;99995.69;221847;1231;75837;-74
2023/06/17 13:19:19;;;;;;;8.20;7.60;;;;;;;25.10;49.82;99993.61;221837;1235;61348;-74
2023/06/17 13:24:12;;;;;;;9.20;8.50;;;;;;;24.67;49.83;99998.02;221805;1232;61306;-74
2023/06/17 13:29:04;;;;;;;9.90;9.10;;;;;;;24.25;50.39;99994.52;221814;1231;61247;-74
2023/06/17 13:33:56;;;;;;;10.60;9.70;;;;;;;23.99;51.49;99990.70;221822;1235;61235;-74
2023/06/17 13:38:48;;;;;;;10.50;9.50;;;;;;;23.87;51.84;99989.00;221879;1232;67910;-74
2023/06/17 13:43:41;;;;;;;10.40;9.40;;;;;;;23.85;52.52;99987.15;221791;1237;61251;-74
2023/06/17 13:48:33;;;;;;;10.10;9.20;;;;;;;23.94;52.83;99988.45;221988;1231;61216;-74
2023/06/17 13:53:25;;;;;;;9.60;8.90;;;;;;;24.37;53.26;99987.88;221857;1235;61341;-74
2023/06/17 13:58:16;;;;;;;9.60;8.70;;;;;;;25.17;51.46;99975.50;221825;1236;73837;-74
2023/06/17 14:03:08;;;;;;;9.00;8.30;;;;;;;25.27;51.54;99977.27;221834;1232;61322;-74
2023/06/17 14:07:59;;;;;;;8.60;7.90;;;;;;;24.97;50.90;99973.39;221865;1235;61745;-74
2023/06/17 14:12:51;;;;;;;8.20;7.50;;;;;;;24.66;50.95;99975.21;221781;1231;73852;-74
2023/06/17 14:17:43;;;;;;;8.10;7.50;;;;;;;24.38;51.15;99972.27;221834;1232;61191;-74
2023/06/17 14:22:35;;;;;;;7.60;7.00;;;;;;;24.13;50.97;99974.07;221895;1232;61242;-74
2023/06/17 14:27:37;;;;;;;7.70;7.10;;;;;;;23.95;50.83;99971.08;221804;1232;61244;-74
2023/06/17 14:32:29;;;;;;;14.00;8.80;;;;;;;23.89;52.64;99975.65;221923;1232;66784;-74
2023/06/17 14:37:21;;;;;;;11.70;8.00;;;;;;;23.91;52.56;99976.42;221796;1232;61683;-74
2023/06/17 14:42:12;;;;;;;7.70;7.10;;;;;;;24.01;52.34;99972.02;221850;1232;61360;-74
2023/06/17 14:47:06;;;;;;;7.10;6.60;;;;;;;24.15;51.09;99972.88;221918;1232;61274;-74
2023/06/17 14:51:57;;;;;;;8.50;7.80;;;;;;;24.36;50.17;99966.14;221657;1235;212307;-74
2023/06/17 14:56:49;;;;;;;8.50;7.80;;;;;;;24.38;50.16;99969.95;221806;1232;61328;-74
2023/06/17 15:01:41;;;;;;;8.50;7.80;;;;;;;24.45;50.57;99968.53;221852;1236;61251;-74
2023/06/17 15:06:33;;;;;;;7.60;7.00;;;;;;;24.61;50.24;99969.66;221813;1232;73263;-74
2023/06/17 15:11:25;;;;;;;6.70;6.20;;;;;;;24.62;50.12;99970.15;221850;1232;61223;-74
2023/06/17 15:16:17;;;;;;;7.40;6.90;;;;;;;24.59;48.77;99975.80;221832;1232;61255;-74
2023/06/17 15:21:08;;;;;;;7.90;7.10;;;;;;;24.59;48.96;99974.17;221762;1232;61355;-74
2023/06/17 15:26:00;;;;;;;7.20;6.70;;;;;;;24.64;48.60;99977.30;221882;1237;67056;-74
2023/06/17 15:30:52;;;;;;;6.70;6.20;;;;;;;24.59;48.39;99980.20;221836;1232;61193;-74
2023/06/17 15:35:43;;;;;;;7.50;6.90;;;;;;;24.52;48.92;99979.89;221845;1232;61264;-74
2023/06/17 15:40:35;;;;;;;10.50;6.90;;;;;;;24.28;48.47;99983.20;221819;1235;61244;-74
2023/06/17 15:45:27;;;;;;;9.40;6.50;;;;;;;24.06;48.46;99982.56;221821;1232;61353;-74
2023/06/17 15:50:18;;;;;;;7.70;6.90;;;;;;;23.83;49.07;99981.58;221899;1231;61329;-74
2023/06/17 15:55:10;;;;;;;7.80;7.10;;;;;;;23.57;50.45;99983.91;221808;1232;73542;-74
2023/06/17 16:00:03;;;;;;;7.90;6.90;;;;;;;23.30;51.73;99985.20;221896;1232;61209;-74
2023/06/17 16:05:03;;;;;;;10.70;8.30;;;;;;;23.06;52.85;99993.73;221846;1232;61341;-74
2023/06/17 16:09:54;;;;;;;8.80;8.00;;;;;;;22.98;53.13;99996.39;221904;1232;61402;-74
2023/06/17 16:14:46;;;;;;;10.20;9.20;;;;;;;22.96;54.10;100003.17;221761;1232;61302;-74
2023/06/17 16:19:38;;;;;;;9.40;8.60;;;;;;;22.98;54.39;100005.23;221805;1232;64598;-74
2023/06/17 16:24:31;;;;;;;9.00;8.30;;;;;;;23.00;54.71;100000.50;221831;1232;61238;-74
2023/06/17 16:29:23;;;;;;;15.40;9.20;;;;;;;22.97;54.89;100008.59;221975;1236;61685;-74
2023/06/17 16:34:16;;;;;;;9.10;8.40;;;;;;;22.92;54.89;100009.02;221683;1232;61261;-74
2023/06/17 16:39:09;;;;;;;10.40;9.30;;;;;;;23.04;55.00;100003.37;222004;1232;61341;-74
2023/06/17 16:44:01;;;;;;;8.20;7.60;;;;;;;23.19;55.07;100000.20;221820;1237;72336;-74
2023/06/17 16:48:53;;;;;;;10.40;8.60;;;;;;;23.40;54.49;100007.33;221828;1235;61173;-74
2023/06/17 16:53:44;;;;;;;9.80;8.20;;;;;;;23.56;54.33;100009.75;221830;1232;61329;-74
2023/06/17 16:58:36;;;;;;;8.00;7.40;;;;;;;23.70;53.16;100011.60;221799;1232;61254;-74
2023/06/17 17:03:28;;;;;;;7.00;6.50;;;;;;;23.77;52.55;100019.73;221784;1232;61319;-74
2023/06/17 17:08:20;;;;;;;7.60;6.90;;;;;;;23.85;51.83;100020.60;221780;1232;61181;-74
2023/06/17 17:13:12;;;;;;;8.30;7.00;;;;;;;23.84;51.98;100023.64;221835;1232;61499;-74
2023/06/17 17:18:03;;;;;;;9.60;8.10;;;;;;;23.72;52.65;100030.78;221811;1232;61197;-74
2023/06/17 17:22:56;;;;;;;9.10;8.20;;;;;;;23.42;53.63;100036.26;221794;1232;61242;-74
2023/06/17 17:27:48;;;;;;;9.40;8.70;;;;;;;23.06;54.33;100038.95;221830;1232;61228;-74
2023/06/17 17:32:41;;;;;;;9.90;9.00;;;;;;;22.73;55.25;100048.20;221873;1232;61287;-74
2023/06/17 17:37:33;;;;;;;8.90;8.20;;;;;;;22.42;56.30;100049.17;221873;1231;72565;-74
2023/06/17 17:42:27;;;;;;;10.10;9.20;;;;;;;22.12;56.68;100055.00;221899;1232;61261;-74
2023/06/17 17:47:21;;;;;;;9.80;9.00;;;;;;;21.86;57.46;100064.52;221857;1232;68054;-74
2023/06/17 17:52:12;;;;;;;10.80;9.70;;;;;;;21.63;58.07;100060.67;221839;1232;61328;-74
2023/06/17 17:57:04;;;;;;;9.80;9.00;;;;;;;21.43;58.87;100060.55;221902;1232;61408;-74
2023/06/17 18:01:57;;;;;;;10.30;9.50;;;;;;;21.21;59.25;100069.45;221780;1232;61300;-74
2023/06/17 18:06:49;;;;;;;12.20;11.10;;;;;;;21.02;59.86;100073.31;221928;1232;61348;-74
2023/06/17 18:11:40;;;;;;;14.10;12.20;;;;;;;20.83;60.38;100076.30;221830;1232;73056;-74
2023/06/17 18:16:32;;;;;;;13.30;11.70;;;;;;;20.66;60.83;100073.20;221866;1235;61245;-74
2023/06/17 18:21:28;;;;;;;12.90;12.00;;;;;;;20.46;61.19;100078.79;221894;1232;61338;-74
2023/06/17 18:26:20;;;;;;;13.90;12.80;;;;;;;20.26;61.46;100082.27;221875;1231;61376;-74
2023/06/17 18:31:11;;;;;;;14.00;12.70;;;;;;;20.11;61.90;100083.64;221843;1232;62235;-74
2023/06/17 18:36:03;;;;;;;14.50;13.30;;;;;;;19.99;62.46;100092.27;221713;1237;61348;-74
2023/06/17 18:40:55;;;;;;;16.30;14.90;;;;;;;19.89;63.02;100098.59;221697;1232;66077;-74
2023/06/17 18:45:48;;;;;;;16.20;14.60;;;;;;;19.75;63.10;100101.80;221826;1232;61341;-74
2023/06/17 18:50:40;;;;;;;15.90;14.60;;;;;;;19.64;63.64;100107.04;221900;1231;61260;-74
2023/06/17 18:55:32;;;;;;;16.80;15.50;;;;;;;19.56;64.00;100111.68;221772;1235;61207;-74
2023/06/17 19:00:25;;;;;;;17.00;15.40;;;;;;;19.45;64.36;100115.86;221641;1232;74946;-74
2023/06/17 19:05:16;;;;;;;16.70;15.40;;;;;;;19.35;64.45;100115.26;221849;1232;61235;-74
2023/06/17 19:10:09;;;;;;;17.80;16.30;;;;;;;19.25;64.85;100121.20;221841;1235;61708;-74
2023/06/17 19:15:01;;;;;;;17.40;16.00;;;;;;;19.14;65.28;100120.61;221886;1232;61322;-74
2023/06/17 19:19:52;;;;;;;18.70;17.10;;;;;;;19.03;65.72;100125.13;221741;1235;61367;-74
2023/06/17 19:24:44;;;;;;;17.40;15.80;;;;;;;18.99;66.08;100125.25;221797;1232;59534;-74
2023/06/17 19:29:36;;;;;;;17.50;16.10;;;;;;;18.91;66.47;100125.09;221831;1231;61204;-74
2023/06/17 19:34:28;;;;;;;18.20;16.70;;;;;;;18.86;66.71;100128.77;221721;1235;67951;-74
2023/06/17 19:39:20;;;;;;;18.20;16.80;;;;;;;18.84;66.92;100126.89;221747;1231;61847;-75
2023/06/17 19:44:12;;;;;;;21.40;19.30;;;;;;;18.81;67.21;100125.17;221770;1235;61261;-74
2023/06/17 19:49:03;;;;;;;20.00;18.40;;;;;;;18.77;67.33;100134.59;221855;1235;61338;-74
2023/06/17 19:53:55;;;;;;;20.10;18.50;;;;;;;18.70;67.63;100137.56;221793;1231;61336;-74
2023/06/17 19:58:47;;;;;;;20.50;19.00;;;;;;;18.70;68.02;100142.66;221849;1232;61719;-74
2023/06/17 20:03:43;;;;;;;20.30;18.70;;;;;;;18.67;68.31;100144.82;221865;1231;74395;-74
2023/06/17 20:08:49;;;;;;;22.50;20.50;;;;;;;18.68;68.58;100143.92;221762;1231;73607;-74
2023/06/17 20:14:06;;;;;;;24.00;21.70;;;;;;;18.67;68.81;100142.56;221768;1231;61208;-75
2023/06/17 20:19:25;;;;;;;23.60;21.50;;;;;;;18.64;69.04;100138.05;221627;1235;67160;-74
2023/06/17 20:24:22;;;;;;;23.00;21.20;;;;;;;18.63;69.07;100138.09;221817;1231;61441;-75
2023/06/17 20:29:18;;;;;;;20.80;19.00;;;;;;;18.60;69.23;100135.54;221871;1231;74535;-74
2023/06/17 20:34:10;;;;;;;21.80;19.80;;;;;;;18.57;69.35;100143.52;221635;1232;61338;-75
2023/06/17 20:39:07;;;;;;;19.90;18.20;;;;;;;18.55;69.48;100143.56;221727;1231;61262;-74
2023/06/17 20:44:11;;;;;;;22.10;20.10;;;;;;;18.51;69.50;100140.33;221873;1231;73423;-74
2023/06/17 20:49:05;;;;;;;23.50;21.30;;;;;;;18.45;69.66;100137.68;221551;1231;61325;-74
2023/06/17 20:53:57;;;;;;;21.70;20.00;;;;;;;18.40;70.01;100144.11;221614;1235;61287;-74
2023/06/17 20:58:49;;;;;;;22.20;19.90;;;;;;;18.36;70.04;100141.75;221759;1235;61220;-74
2023/06/17 21:03:46;;;;;;;22.30;20.50;;;;;;;18.32;70.25;100143.44;221594;1231;65582;-74
2023/06/17 21:08:40;;;;;;;23.00;21.00;;;;;;;18.24;70.19;100143.60;221798;1231;61223;-73
2023/06/17 21:13:32;;;;;;;24.00;22.10;;;;;;;18.16;70.32;100143.09;221858;1231;61412;-73
2023/06/17 21:18:26;;;;;;;23.70;21.70;;;;;;;18.09;70.45;100131.67;221853;1235;61308;-74
2023/06/17 21:23:18;;;;;;;24.80;22.60;;;;;;;18.06;70.80;100125.45;221829;1231;61351;-73
2023/06/17 21:28:10;;;;;;;25.60;23.40;;;;;;;18.03;70.90;100127.27;221818;1235;61187;-73
2023/06/17 21:33:05;;;;;;;26.50;24.30;;;;;;;17.95;70.89;100130.26;221645;1231;61349;-73
2023/06/17 21:37:58;;;;;;;26.20;24.00;;;;;;;17.86;71.08;100133.08;221903;1231;67774;-74
2023/06/17 21:42:50;;;;;;;28.50;26.10;;;;;;;17.80;71.40;100138.44;221834;1235;61618;-73
2023/06/17 21:47:42;;;;;;;28.30;25.90;;;;;;;17.77;71.66;100130.09;221821;1231;61589;-73
2023/06/17 21:52:34;;;;;;;26.80;24.70;;;;;;;17.75;71.87;100136.09;221886;1231;61243;-74
2023/06/17 21:57:29;;;;;;;28.60;26.30;;;;;;;17.72;71.94;100146.66;221901;1231;75486;-74
2023/06/17 22:02:21;;;;;;;28.10;25.80;;;;;;;17.69;72.15;100144.47;221891;1231;72380;-73
2023/06/17 22:07:13;;;;;;;27.30;24.40;;;;;;;17.67;72.29;100146.42;221756;1231;61245;-74
2023/06/17 22:12:06;;;;;;;29.60;27.20;;;;;;;17.61;72.19;100158.64;221822;1235;61766;-74
2023/06/17 22:16:58;;;;;;;29.80;27.30;;;;;;;17.57;72.42;100155.94;221942;1231;61234;-74